sensor_id;sensor_type;location;lat;lon;timestamp;pressure;altitude;pressure_sealevel;temperature;humidity
50105;BME280;47690;39.202;-77.198;2023-06-22T00:01:51;100526.56;;;45.60;14.02
50105;BME280;47690;39.202;-77.198;2023-06-22T00:04:21;100505.59;;;45.38;14.09
50105;BME280;47690;39.202;-77.198;2023-06-22T00:06:52;100511.84;;;45.39;13.81
50105;BME280;47690;39.202;-77.198;2023-06-22T00:09:21;100505.75;;;45.32;14.22
50105;BME280;47690;39.202;-77.198;2023-06-22T00:11:50;100501.06;;;45.27;14.34
50105;BME280;47690;39.202;-77.198;2023-06-22T00:14:19;100488.22;;;45.22;14.34
50105;BME280;47690;39.202;-77.198;2023-06-22T00:16:49;100491.78;;;45.23;14.37
50105;BME280;47690;39.202;-77.198;2023-06-22T00:19:17;100501.38;;;45.30;14.27
50105;BME280;47690;39.202;-77.198;2023-06-22T00:21:52;100487.91;;;45.19;14.46
50105;BME280;47690;39.202;-77.198;2023-06-22T00:24:22;100492.09;;;45.26;14.35
50105;BME280;47690;39.202;-77.198;2023-06-22T00:26:51;100485.69;;;45.15;14.41
50105;BME280;47690;39.202;-77.198;2023-06-22T00:29:20;100482.81;;;45.05;13.85
50105;BME280;47690;39.202;-77.198;2023-06-22T00:31:52;100486.28;;;45.18;14.24
50105;BME280;47690;39.202;-77.198;2023-06-22T00:34:22;100483.00;;;45.77;13.74
50105;BME280;47690;39.202;-77.198;2023-06-22T00:36:52;100482.81;;;45.84;13.80
50105;BME280;47690;39.202;-77.198;2023-06-22T00:39:21;100490.09;;;45.39;13.91
50105;BME280;47690;39.202;-77.198;2023-06-22T00:41:50;100484.53;;;45.28;13.84
50105;BME280;47690;39.202;-77.198;2023-06-22T00:44:19;100476.78;;;45.20;13.66
50105;BME280;47690;39.202;-77.198;2023-06-22T00:46:48;100493.09;;;45.20;14.28
50105;BME280;47690;39.202;-77.198;2023-06-22T00:49:17;100479.19;;;45.16;14.35
50105;BME280;47690;39.202;-77.198;2023-06-22T00:51:46;100477.59;;;45.21;13.73
50105;BME280;47690;39.202;-77.198;2023-06-22T00:54:18;100486.28;;;45.40;14.04
50105;BME280;47690;39.202;-77.198;2023-06-22T00:56:54;100481.59;;;45.35;14.10
50105;BME280;47690;39.202;-77.198;2023-06-22T00:59:26;100474.59;;;45.39;14.09
50105;BME280;47690;39.202;-77.198;2023-06-22T01:01:55;100485.47;;;45.39;13.97
50105;BME280;47690;39.202;-77.198;2023-06-22T01:04:35;100490.38;;;46.04;13.25
50105;BME280;47690;39.202;-77.198;2023-06-22T01:10:08;100495.44;;;45.73;13.75
50105;BME280;47690;39.202;-77.198;2023-06-22T01:12:44;100490.59;;;45.53;13.44
50105;BME280;47690;39.202;-77.198;2023-06-22T01:18:04;100486.66;;;45.26;13.50
50105;BME280;47690;39.202;-77.198;2023-06-22T01:20:35;100485.19;;;45.19;13.38
50105;BME280;47690;39.202;-77.198;2023-06-22T01:23:21;100495.47;;;45.34;13.98
50105;BME280;47690;39.202;-77.198;2023-06-22T01:28:50;100495.19;;;45.35;13.63
50105;BME280;47690;39.202;-77.198;2023-06-22T01:31:25;100495.63;;;45.27;13.98
50105;BME280;47690;39.202;-77.198;2023-06-22T01:33:58;100509.31;;;45.15;14.18
50105;BME280;47690;39.202;-77.198;2023-06-22T01:36:33;100508.69;;;45.08;13.80
50105;BME280;47690;39.202;-77.198;2023-06-22T01:39:05;100509.38;;;45.37;13.94
50105;BME280;47690;39.202;-77.198;2023-06-22T01:41:37;100519.50;;;45.59;13.19
50105;BME280;47690;39.202;-77.198;2023-06-22T01:44:08;100514.75;;;45.32;13.96
50105;BME280;47690;39.202;-77.198;2023-06-22T01:46:43;100523.91;;;45.26;13.96
50105;BME280;47690;39.202;-77.198;2023-06-22T01:49:15;100524.41;;;45.23;13.76
50105;BME280;47690;39.202;-77.198;2023-06-22T01:51:45;100507.03;;;45.24;13.65
50105;BME280;47690;39.202;-77.198;2023-06-22T01:54:15;100521.69;;;45.62;13.66
50105;BME280;47690;39.202;-77.198;2023-06-22T01:56:45;100504.72;;;44.81;13.83
50105;BME280;47690;39.202;-77.198;2023-06-22T01:59:29;100514.84;;;45.60;13.59
50105;BME280;47690;39.202;-77.198;2023-06-22T02:02:09;100513.34;;;45.47;13.32
50105;BME280;47690;39.202;-77.198;2023-06-22T02:04:59;100500.88;;;45.51;13.71
50105;BME280;47690;39.202;-77.198;2023-06-22T02:07:49;100511.03;;;45.38;13.09
50105;BME280;47690;39.202;-77.198;2023-06-22T02:10:21;100509.78;;;45.29;13.71
50105;BME280;47690;39.202;-77.198;2023-06-22T02:12:51;100506.78;;;45.08;13.78
50105;BME280;47690;39.202;-77.198;2023-06-22T02:15:21;100505.97;;;45.08;13.41
50105;BME280;47690;39.202;-77.198;2023-06-22T02:18:00;100499.75;;;45.29;13.34
50105;BME280;47690;39.202;-77.198;2023-06-22T02:20:28;100498.63;;;46.97;12.16
50105;BME280;47690;39.202;-77.198;2023-06-22T02:22:57;100495.75;;;45.54;13.38
50105;BME280;47690;39.202;-77.198;2023-06-22T02:25:27;100502.59;;;45.40;13.13
50105;BME280;47690;39.202;-77.198;2023-06-22T02:27:57;100507.88;;;45.07;13.80
50105;BME280;47690;39.202;-77.198;2023-06-22T02:30:27;100501.16;;;44.98;14.03
50105;BME280;47690;39.202;-77.198;2023-06-22T02:32:57;100495.28;;;45.01;14.15
50105;BME280;47690;39.202;-77.198;2023-06-22T02:35:30;100493.28;;;44.96;14.20
50105;BME280;47690;39.202;-77.198;2023-06-22T02:40:55;100503.31;;;44.79;13.75
50105;BME280;47690;39.202;-77.198;2023-06-22T02:43:25;100482.00;;;44.70;14.07
50105;BME280;47690;39.202;-77.198;2023-06-22T02:45:55;100479.44;;;44.81;14.17
50105;BME280;47690;39.202;-77.198;2023-06-22T02:48:28;100476.72;;;44.81;14.09
50105;BME280;47690;39.202;-77.198;2023-06-22T02:50:58;100476.00;;;44.68;14.15
50105;BME280;47690;39.202;-77.198;2023-06-22T02:53:28;100479.91;;;44.60;13.64
50105;BME280;47690;39.202;-77.198;2023-06-22T02:56:00;100472.25;;;44.57;13.56
50105;BME280;47690;39.202;-77.198;2023-06-22T02:58:32;100476.97;;;44.62;13.62
50105;BME280;47690;39.202;-77.198;2023-06-22T03:01:11;100480.34;;;44.86;14.04
50105;BME280;47690;39.202;-77.198;2023-06-22T03:03:49;100465.91;;;44.52;14.23
50105;BME280;47690;39.202;-77.198;2023-06-22T03:06:21;100466.22;;;44.38;13.71
50105;BME280;47690;39.202;-77.198;2023-06-22T03:08:59;100475.44;;;44.54;14.11
50105;BME280;47690;39.202;-77.198;2023-06-22T03:11:33;100471.34;;;44.52;14.12
50105;BME280;47690;39.202;-77.198;2023-06-22T03:14:03;100474.03;;;44.34;13.73
50105;BME280;47690;39.202;-77.198;2023-06-22T03:16:33;100477.06;;;44.21;13.98
50105;BME280;47690;39.202;-77.198;2023-06-22T03:19:02;100474.84;;;44.06;14.56
50105;BME280;47690;39.202;-77.198;2023-06-22T03:21:32;100465.59;;;43.90;14.25
50105;BME280;47690;39.202;-77.198;2023-06-22T03:24:01;100474.78;;;43.89;14.44
50105;BME280;47690;39.202;-77.198;2023-06-22T03:26:31;100468.31;;;43.90;14.54
50105;BME280;47690;39.202;-77.198;2023-06-22T03:29:08;100464.88;;;43.94;14.43
50105;BME280;47690;39.202;-77.198;2023-06-22T03:31:37;100465.31;;;43.91;14.44
50105;BME280;47690;39.202;-77.198;2023-06-22T03:34:06;100464.88;;;43.94;14.27
50105;BME280;47690;39.202;-77.198;2023-06-22T03:36:35;100482.22;;;43.93;14.63
50105;BME280;47690;39.202;-77.198;2023-06-22T03:39:06;100460.75;;;43.92;14.54
50105;BME280;47690;39.202;-77.198;2023-06-22T03:41:35;100460.84;;;43.97;14.36
50105;BME280;47690;39.202;-77.198;2023-06-22T03:44:04;100460.69;;;44.04;14.12
50105;BME280;47690;39.202;-77.198;2023-06-22T03:46:34;100460.06;;;44.14;14.34
50105;BME280;47690;39.202;-77.198;2023-06-22T03:49:05;100455.44;;;44.14;13.91
50105;BME280;47690;39.202;-77.198;2023-06-22T03:51:34;100444.13;;;44.17;14.09
50105;BME280;47690;39.202;-77.198;2023-06-22T03:54:03;100447.75;;;44.23;14.38
50105;BME280;47690;39.202;-77.198;2023-06-22T03:56:32;100432.72;;;44.32;13.90
50105;BME280;47690;39.202;-77.198;2023-06-22T03:59:02;100432.91;;;44.43;13.75
50105;BME280;47690;39.202;-77.198;2023-06-22T04:01:30;100429.63;;;44.41;14.28
50105;BME280;47690;39.202;-77.198;2023-06-22T04:03:59;100433.72;;;44.26;14.55
50105;BME280;47690;39.202;-77.198;2023-06-22T04:06:29;100440.53;;;44.29;14.57
50105;BME280;47690;39.202;-77.198;2023-06-22T04:09:03;100419.00;;;44.39;14.32
50105;BME280;47690;39.202;-77.198;2023-06-22T04:11:32;100418.00;;;44.28;13.89
50105;BME280;47690;39.202;-77.198;2023-06-22T04:14:02;100416.38;;;44.27;14.03
50105;BME280;47690;39.202;-77.198;2023-06-22T04:16:31;100420.56;;;44.06;14.02
50105;BME280;47690;39.202;-77.198;2023-06-22T04:18:59;100409.31;;;44.14;13.97
50105;BME280;47690;39.202;-77.198;2023-06-22T04:21:28;100419.75;;;44.34;14.23
50105;BME280;47690;39.202;-77.198;2023-06-22T04:23:57;100415.38;;;44.51;14.19
50105;BME280;47690;39.202;-77.198;2023-06-22T04:26:26;100416.31;;;44.56;13.63
50105;BME280;47690;39.202;-77.198;2023-06-22T04:28:55;100415.06;;;44.64;13.62
50105;BME280;47690;39.202;-77.198;2023-06-22T04:31:24;100413.25;;;44.70;14.26
50105;BME280;47690;39.202;-77.198;2023-06-22T04:34:00;100410.38;;;44.77;13.36
50105;BME280;47690;39.202;-77.198;2023-06-22T04:36:38;100408.88;;;46.53;12.41
50105;BME280;47690;39.202;-77.198;2023-06-22T04:39:10;100411.56;;;45.42;13.10
50105;BME280;47690;39.202;-77.198;2023-06-22T04:41:41;100412.81;;;44.95;13.38
50105;BME280;47690;39.202;-77.198;2023-06-22T04:44:15;100411.25;;;44.99;13.44
50105;BME280;47690;39.202;-77.198;2023-06-22T04:46:59;100410.59;;;45.32;13.53
50105;BME280;47690;39.202;-77.198;2023-06-22T04:49:37;100421.78;;;45.35;13.67
50105;BME280;47690;39.202;-77.198;2023-06-22T04:52:08;100407.06;;;45.31;13.75
50105;BME280;47690;39.202;-77.198;2023-06-22T04:54:41;100417.13;;;45.30;13.59
50105;BME280;47690;39.202;-77.198;2023-06-22T04:57:16;100411.72;;;45.13;13.59
50105;BME280;47690;39.202;-77.198;2023-06-22T04:59:45;100409.28;;;44.95;13.67
50105;BME280;47690;39.202;-77.198;2023-06-22T05:02:14;100399.34;;;45.00;13.87
50105;BME280;47690;39.202;-77.198;2023-06-22T05:04:45;100395.06;;;45.05;13.50
50105;BME280;47690;39.202;-77.198;2023-06-22T05:07:22;100391.66;;;45.14;13.48
50105;BME280;47690;39.202;-77.198;2023-06-22T05:09:55;100398.56;;;45.05;13.77
50105;BME280;47690;39.202;-77.198;2023-06-22T05:12:24;100395.53;;;45.01;13.48
50105;BME280;47690;39.202;-77.198;2023-06-22T05:14:54;100398.84;;;45.04;14.01
50105;BME280;47690;39.202;-77.198;2023-06-22T05:17:24;100394.38;;;44.97;13.82
50105;BME280;47690;39.202;-77.198;2023-06-22T05:19:54;100390.41;;;45.05;13.97
50105;BME280;47690;39.202;-77.198;2023-06-22T05:22:25;100386.53;;;45.18;13.26
50105;BME280;47690;39.202;-77.198;2023-06-22T05:24:55;100385.91;;;45.11;13.79
50105;BME280;47690;39.202;-77.198;2023-06-22T05:27:24;100391.34;;;44.94;13.98
50105;BME280;47690;39.202;-77.198;2023-06-22T05:29:53;100390.34;;;45.00;13.44
50105;BME280;47690;39.202;-77.198;2023-06-22T05:32:22;100395.69;;;45.12;13.46
50105;BME280;47690;39.202;-77.198;2023-06-22T05:34:52;100391.25;;;45.28;13.34
50105;BME280;47690;39.202;-77.198;2023-06-22T05:37:21;100392.78;;;45.19;13.82
50105;BME280;47690;39.202;-77.198;2023-06-22T05:39:50;100385.91;;;45.11;13.35
50105;BME280;47690;39.202;-77.198;2023-06-22T05:42:19;100381.97;;;45.24;13.39
50105;BME280;47690;39.202;-77.198;2023-06-22T05:44:48;100385.00;;;45.27;13.34
50105;BME280;47690;39.202;-77.198;2023-06-22T05:47:17;100384.44;;;44.86;13.71
50105;BME280;47690;39.202;-77.198;2023-06-22T05:49:46;100387.22;;;44.91;14.04
50105;BME280;47690;39.202;-77.198;2023-06-22T05:52:15;100375.72;;;44.84;13.83
50105;BME280;47690;39.202;-77.198;2023-06-22T05:54:46;100365.72;;;44.89;13.63
50105;BME280;47690;39.202;-77.198;2023-06-22T05:57:15;100371.41;;;45.05;14.14
50105;BME280;47690;39.202;-77.198;2023-06-22T05:59:46;100362.00;;;45.13;13.80
50105;BME280;47690;39.202;-77.198;2023-06-22T06:02:15;100361.44;;;45.11;13.70
50105;BME280;47690;39.202;-77.198;2023-06-22T06:04:45;100354.47;;;45.20;13.92
50105;BME280;47690;39.202;-77.198;2023-06-22T06:07:15;100354.97;;;45.39;13.44
50105;BME280;47690;39.202;-77.198;2023-06-22T06:09:45;100350.09;;;45.64;13.48
50105;BME280;47690;39.202;-77.198;2023-06-22T06:12:14;100349.28;;;45.19;13.94
50105;BME280;47690;39.202;-77.198;2023-06-22T06:14:43;100346.50;;;45.13;13.47
50105;BME280;47690;39.202;-77.198;2023-06-22T06:17:13;100351.44;;;45.16;13.53
50105;BME280;47690;39.202;-77.198;2023-06-22T06:19:43;100347.41;;;45.19;14.11
50105;BME280;47690;39.202;-77.198;2023-06-22T06:22:12;100345.25;;;45.21;13.90
50105;BME280;47690;39.202;-77.198;2023-06-22T06:24:41;100344.47;;;45.26;14.04
50105;BME280;47690;39.202;-77.198;2023-06-22T06:27:10;100348.59;;;45.28;13.39
50105;BME280;47690;39.202;-77.198;2023-06-22T06:29:40;100346.19;;;45.10;13.58
50105;BME280;47690;39.202;-77.198;2023-06-22T06:32:11;100344.06;;;45.12;14.00
50105;BME280;47690;39.202;-77.198;2023-06-22T06:34:40;100345.13;;;45.11;13.78
50105;BME280;47690;39.202;-77.198;2023-06-22T06:37:09;100339.25;;;45.19;13.90
50105;BME280;47690;39.202;-77.198;2023-06-22T06:39:38;100338.03;;;45.10;14.14
50105;BME280;47690;39.202;-77.198;2023-06-22T06:42:09;100336.16;;;45.10;13.70
50105;BME280;47690;39.202;-77.198;2023-06-22T06:44:41;100328.75;;;45.06;13.79
50105;BME280;47690;39.202;-77.198;2023-06-22T06:47:10;100323.44;;;45.16;13.52
50105;BME280;47690;39.202;-77.198;2023-06-22T06:49:40;100323.25;;;45.23;13.87
50105;BME280;47690;39.202;-77.198;2023-06-22T06:52:09;100323.81;;;45.25;13.45
50105;BME280;47690;39.202;-77.198;2023-06-22T06:54:38;100318.31;;;45.69;13.18
50105;BME280;47690;39.202;-77.198;2023-06-22T06:57:07;100321.78;;;45.37;13.27
50105;BME280;47690;39.202;-77.198;2023-06-22T06:59:39;100321.78;;;45.15;13.63
50105;BME280;47690;39.202;-77.198;2023-06-22T07:02:08;100313.00;;;45.08;13.42
50105;BME280;47690;39.202;-77.198;2023-06-22T07:04:37;100308.69;;;45.34;14.17
50105;BME280;47690;39.202;-77.198;2023-06-22T07:07:06;100304.41;;;45.38;13.81
50105;BME280;47690;39.202;-77.198;2023-06-22T07:09:35;100316.34;;;45.37;13.52
50105;BME280;47690;39.202;-77.198;2023-06-22T07:12:05;100315.63;;;45.42;13.91
50105;BME280;47690;39.202;-77.198;2023-06-22T07:14:34;100317.25;;;45.43;13.55
50105;BME280;47690;39.202;-77.198;2023-06-22T07:17:03;100330.59;;;45.45;13.56
50105;BME280;47690;39.202;-77.198;2023-06-22T07:19:33;100316.72;;;46.01;13.67
50105;BME280;47690;39.202;-77.198;2023-06-22T07:22:02;100320.25;;;46.34;13.31
50105;BME280;47690;39.202;-77.198;2023-06-22T07:24:31;100319.66;;;46.22;12.85
50105;BME280;47690;39.202;-77.198;2023-06-22T07:27:01;100312.94;;;46.02;13.11
50105;BME280;47690;39.202;-77.198;2023-06-22T07:29:31;100310.16;;;45.97;13.00
50105;BME280;47690;39.202;-77.198;2023-06-22T07:32:01;100310.63;;;45.89;13.21
50105;BME280;47690;39.202;-77.198;2023-06-22T07:34:33;100310.00;;;45.32;13.62
50105;BME280;47690;39.202;-77.198;2023-06-22T07:37:02;100309.91;;;45.21;13.58
50105;BME280;47690;39.202;-77.198;2023-06-22T07:39:33;100308.53;;;45.19;13.60
50105;BME280;47690;39.202;-77.198;2023-06-22T07:42:02;100302.00;;;45.20;13.63
50105;BME280;47690;39.202;-77.198;2023-06-22T07:44:31;100309.38;;;45.24;13.59
50105;BME280;47690;39.202;-77.198;2023-06-22T07:47:00;100312.06;;;45.41;13.66
50105;BME280;47690;39.202;-77.198;2023-06-22T07:49:30;100315.91;;;45.23;13.68
50105;BME280;47690;39.202;-77.198;2023-06-22T07:51:59;100316.91;;;45.17;14.24
50105;BME280;47690;39.202;-77.198;2023-06-22T07:54:30;100304.09;;;45.62;13.75
50105;BME280;47690;39.202;-77.198;2023-06-22T07:57:01;100318.34;;;45.42;14.13
50105;BME280;47690;39.202;-77.198;2023-06-22T07:59:29;100308.06;;;45.49;13.60
50105;BME280;47690;39.202;-77.198;2023-06-22T08:01:58;100313.81;;;45.53;13.84
50105;BME280;47690;39.202;-77.198;2023-06-22T08:04:28;100312.75;;;45.54;14.04
50105;BME280;47690;39.202;-77.198;2023-06-22T08:06:59;100318.78;;;45.61;13.55
50105;BME280;47690;39.202;-77.198;2023-06-22T08:09:31;100317.78;;;45.67;14.01
50105;BME280;47690;39.202;-77.198;2023-06-22T08:11:59;100320.22;;;45.69;13.97
50105;BME280;47690;39.202;-77.198;2023-06-22T08:14:29;100321.50;;;45.61;14.23
50105;BME280;47690;39.202;-77.198;2023-06-22T08:16:59;100320.13;;;45.59;14.01
50105;BME280;47690;39.202;-77.198;2023-06-22T08:19:37;100326.44;;;45.64;13.83
50105;BME280;47690;39.202;-77.198;2023-06-22T08:22:06;100324.38;;;45.77;13.51
50105;BME280;47690;39.202;-77.198;2023-06-22T08:24:35;100326.09;;;45.83;13.43
50105;BME280;47690;39.202;-77.198;2023-06-22T08:27:04;100329.69;;;45.89;13.37
50105;BME280;47690;39.202;-77.198;2023-06-22T08:29:37;100336.28;;;45.98;13.65
50105;BME280;47690;39.202;-77.198;2023-06-22T08:32:06;100331.91;;;45.97;13.28
50105;BME280;47690;39.202;-77.198;2023-06-22T08:34:36;100340.03;;;45.92;13.38
50105;BME280;47690;39.202;-77.198;2023-06-22T08:40:07;100332.81;;;46.08;13.19
50105;BME280;47690;39.202;-77.198;2023-06-22T08:42:37;100325.75;;;45.79;13.43
50105;BME280;47690;39.202;-77.198;2023-06-22T08:45:07;100329.16;;;45.92;13.96
50105;BME280;47690;39.202;-77.198;2023-06-22T08:47:37;100325.97;;;45.73;13.59
50105;BME280;47690;39.202;-77.198;2023-06-22T08:50:09;100328.38;;;45.69;14.04
50105;BME280;47690;39.202;-77.198;2023-06-22T08:52:40;100333.19;;;45.62;14.12
50105;BME280;47690;39.202;-77.198;2023-06-22T08:55:10;100332.72;;;45.42;14.17
50105;BME280;47690;39.202;-77.198;2023-06-22T08:57:39;100334.50;;;45.54;13.84
50105;BME280;47690;39.202;-77.198;2023-06-22T09:00:09;100333.50;;;45.65;13.65
50105;BME280;47690;39.202;-77.198;2023-06-22T09:02:47;100327.19;;;45.82;13.81
50105;BME280;47690;39.202;-77.198;2023-06-22T09:05:17;100320.91;;;46.14;13.75
50105;BME280;47690;39.202;-77.198;2023-06-22T09:07:47;100321.38;;;46.06;13.87
50105;BME280;47690;39.202;-77.198;2023-06-22T09:10:15;100323.25;;;46.33;13.10
50105;BME280;47690;39.202;-77.198;2023-06-22T09:12:44;100332.69;;;46.20;13.26
50105;BME280;47690;39.202;-77.198;2023-06-22T09:15:14;100327.97;;;46.15;13.75
50105;BME280;47690;39.202;-77.198;2023-06-22T09:17:45;100331.88;;;46.19;13.67
50105;BME280;47690;39.202;-77.198;2023-06-22T09:20:17;100326.47;;;45.97;13.77
50105;BME280;47690;39.202;-77.198;2023-06-22T09:22:47;100333.38;;;45.77;13.37
50105;BME280;47690;39.202;-77.198;2023-06-22T09:25:17;100340.34;;;45.68;13.64
50105;BME280;47690;39.202;-77.198;2023-06-22T09:27:50;100342.19;;;45.62;13.94
50105;BME280;47690;39.202;-77.198;2023-06-22T09:30:19;100338.28;;;45.53;14.25
50105;BME280;47690;39.202;-77.198;2023-06-22T09:32:47;100340.50;;;45.56;13.71
50105;BME280;47690;39.202;-77.198;2023-06-22T09:35:18;100351.81;;;45.70;14.00
50105;BME280;47690;39.202;-77.198;2023-06-22T09:37:48;100346.38;;;45.75;13.65
50105;BME280;47690;39.202;-77.198;2023-06-22T09:40:22;100361.13;;;45.79;13.86
50105;BME280;47690;39.202;-77.198;2023-06-22T09:42:54;100350.75;;;45.76;13.94
50105;BME280;47690;39.202;-77.198;2023-06-22T09:45:23;100357.84;;;45.77;13.88
50105;BME280;47690;39.202;-77.198;2023-06-22T09:47:53;100366.50;;;45.74;13.74
50105;BME280;47690;39.202;-77.198;2023-06-22T09:50:22;100365.72;;;45.74;13.79
50105;BME280;47690;39.202;-77.198;2023-06-22T09:52:51;100357.84;;;45.77;14.20
50105;BME280;47690;39.202;-77.198;2023-06-22T09:55:23;100370.06;;;45.75;14.18
50105;BME280;47690;39.202;-77.198;2023-06-22T09:57:53;100374.97;;;45.78;14.15
50105;BME280;47690;39.202;-77.198;2023-06-22T10:07:22;100358.81;;;46.21;13.52
50105;BME280;47690;39.202;-77.198;2023-06-22T10:09:54;100365.28;;;45.87;13.83
50105;BME280;47690;39.202;-77.198;2023-06-22T10:12:24;100374.91;;;45.73;14.17
50105;BME280;47690;39.202;-77.198;2023-06-22T10:14:54;100371.66;;;45.70;14.23
50105;BME280;47690;39.202;-77.198;2023-06-22T10:17:23;100376.69;;;45.56;13.87
50105;BME280;47690;39.202;-77.198;2023-06-22T10:19:55;100387.56;;;45.56;14.18
50105;BME280;47690;39.202;-77.198;2023-06-22T10:22:25;100386.47;;;45.58;14.02
50105;BME280;47690;39.202;-77.198;2023-06-22T10:24:54;100386.47;;;45.58;14.38
50105;BME280;47690;39.202;-77.198;2023-06-22T10:27:24;100392.72;;;45.58;14.11
50105;BME280;47690;39.202;-77.198;2023-06-22T10:29:54;100392.78;;;45.63;14.06
50105;BME280;47690;39.202;-77.198;2023-06-22T10:32:23;100401.06;;;45.74;14.32
50105;BME280;47690;39.202;-77.198;2023-06-22T10:34:52;100401.88;;;45.74;14.29
50105;BME280;47690;39.202;-77.198;2023-06-22T10:37:22;100394.94;;;46.16;13.80
50105;BME280;47690;39.202;-77.198;2023-06-22T10:39:51;100400.84;;;46.30;13.94
50105;BME280;47690;39.202;-77.198;2023-06-22T10:42:20;100403.66;;;46.46;13.51
50105;BME280;47690;39.202;-77.198;2023-06-22T10:44:51;100403.13;;;46.44;13.43
50105;BME280;47690;39.202;-77.198;2023-06-22T10:47:19;100402.34;;;46.48;13.59
50105;BME280;47690;39.202;-77.198;2023-06-22T10:49:48;100404.22;;;46.48;13.43
50105;BME280;47690;39.202;-77.198;2023-06-22T10:52:17;100404.53;;;46.51;13.38
50105;BME280;47690;39.202;-77.198;2023-06-22T10:54:48;100410.59;;;46.59;13.26
50105;BME280;47690;39.202;-77.198;2023-06-22T10:57:18;100401.69;;;48.02;12.32
50105;BME280;47690;39.202;-77.198;2023-06-22T10:59:51;100409.00;;;46.68;13.29
50105;BME280;47690;39.202;-77.198;2023-06-22T11:02:20;100405.34;;;46.52;13.62
50105;BME280;47690;39.202;-77.198;2023-06-22T11:04:51;100414.03;;;46.49;13.72
50105;BME280;47690;39.202;-77.198;2023-06-22T11:07:19;100413.25;;;46.54;13.77
50105;BME280;47690;39.202;-77.198;2023-06-22T11:09:50;100414.69;;;46.61;13.31
50105;BME280;47690;39.202;-77.198;2023-06-22T11:12:24;100417.00;;;46.80;13.35
50105;BME280;47690;39.202;-77.198;2023-06-22T11:14:57;100408.81;;;46.75;13.27
50105;BME280;47690;39.202;-77.198;2023-06-22T11:17:28;100412.53;;;46.63;13.80
50105;BME280;47690;39.202;-77.198;2023-06-22T11:19:58;100417.44;;;46.61;13.69
50105;BME280;47690;39.202;-77.198;2023-06-22T11:22:33;100413.97;;;46.76;13.48
50105;BME280;47690;39.202;-77.198;2023-06-22T11:25:02;100406.91;;;46.81;13.12
50105;BME280;47690;39.202;-77.198;2023-06-22T11:27:33;100413.53;;;46.95;13.27
50105;BME280;47690;39.202;-77.198;2023-06-22T11:30:02;100411.53;;;47.23;12.86
50105;BME280;47690;39.202;-77.198;2023-06-22T11:32:34;100413.00;;;46.93;13.46
50105;BME280;47690;39.202;-77.198;2023-06-22T11:35:04;100410.69;;;46.74;13.26
50105;BME280;47690;39.202;-77.198;2023-06-22T11:37:33;100401.44;;;46.75;13.64
50105;BME280;47690;39.202;-77.198;2023-06-22T11:40:02;100412.06;;;46.77;13.46
50105;BME280;47690;39.202;-77.198;2023-06-22T11:42:35;100417.53;;;46.77;13.59
50105;BME280;47690;39.202;-77.198;2023-06-22T11:45:06;100415.03;;;46.70;13.53
50105;BME280;47690;39.202;-77.198;2023-06-22T11:47:36;100415.84;;;46.71;13.37
50105;BME280;47690;39.202;-77.198;2023-06-22T11:50:06;100415.84;;;46.71;13.43
50105;BME280;47690;39.202;-77.198;2023-06-22T11:52:36;100424.31;;;46.74;13.30
50105;BME280;47690;39.202;-77.198;2023-06-22T11:55:06;100428.31;;;46.61;13.86
50105;BME280;47690;39.202;-77.198;2023-06-22T11:57:36;100429.41;;;46.65;13.42
50105;BME280;47690;39.202;-77.198;2023-06-22T12:00:09;100429.22;;;46.72;13.41
50105;BME280;47690;39.202;-77.198;2023-06-22T12:02:50;100430.16;;;46.94;13.57
50105;BME280;47690;39.202;-77.198;2023-06-22T12:05:28;100431.19;;;46.87;13.38
50105;BME280;47690;39.202;-77.198;2023-06-22T12:07:57;100417.06;;;46.90;13.29
50105;BME280;47690;39.202;-77.198;2023-06-22T12:10:27;100426.84;;;46.86;13.36
50105;BME280;47690;39.202;-77.198;2023-06-22T12:13:01;100428.34;;;47.04;13.22
50105;BME280;47690;39.202;-77.198;2023-06-22T12:15:31;100417.63;;;46.92;13.13
50105;BME280;47690;39.202;-77.198;2023-06-22T12:18:01;100425.75;;;46.87;13.31
50105;BME280;47690;39.202;-77.198;2023-06-22T12:20:33;100421.53;;;47.07;13.22
50105;BME280;47690;39.202;-77.198;2023-06-22T12:23:03;100422.09;;;47.09;13.44
50105;BME280;47690;39.202;-77.198;2023-06-22T12:25:31;100429.72;;;47.07;13.39
50105;BME280;47690;39.202;-77.198;2023-06-22T12:28:01;100442.53;;;47.07;13.58
50105;BME280;47690;39.202;-77.198;2023-06-22T12:30:33;100437.09;;;47.12;13.40
50105;BME280;47690;39.202;-77.198;2023-06-22T12:33:02;100435.47;;;47.11;13.28
50105;BME280;47690;39.202;-77.198;2023-06-22T12:35:31;100433.25;;;47.02;13.30
50105;BME280;47690;39.202;-77.198;2023-06-22T12:38:01;100433.19;;;46.97;13.44
50105;BME280;47690;39.202;-77.198;2023-06-22T12:40:30;100444.44;;;47.06;13.58
50105;BME280;47690;39.202;-77.198;2023-06-22T12:43:02;100453.00;;;46.87;13.87
50105;BME280;47690;39.202;-77.198;2023-06-22T12:45:31;100445.16;;;46.96;13.39
50105;BME280;47690;39.202;-77.198;2023-06-22T12:48:02;100449.50;;;46.92;13.40
50105;BME280;47690;39.202;-77.198;2023-06-22T12:50:31;100461.31;;;47.03;13.46
50105;BME280;47690;39.202;-77.198;2023-06-22T12:53:13;100458.69;;;47.18;13.65
50105;BME280;47690;39.202;-77.198;2023-06-22T12:55:43;100455.38;;;47.16;13.29
50105;BME280;47690;39.202;-77.198;2023-06-22T12:58:13;100460.00;;;47.11;13.48
50105;BME280;47690;39.202;-77.198;2023-06-22T13:00:46;100457.03;;;47.17;13.58
50105;BME280;47690;39.202;-77.198;2023-06-22T13:03:15;100458.41;;;47.20;13.54
50105;BME280;47690;39.202;-77.198;2023-06-22T13:05:45;100465.22;;;47.17;13.48
50105;BME280;47690;39.202;-77.198;2023-06-22T13:08:15;100471.22;;;47.25;12.97
50105;BME280;47690;39.202;-77.198;2023-06-22T13:10:45;100485.91;;;47.13;13.30